16°C Temp
11°C Dewpoint
% Humidity
Temperature
2 KM/H
1 MPH
1 KTS
Calm
Due North

Wind Speed
Clear
Conditions
Pressure 1019.92 (hPa) - 30.12 (in)
Visibility 6.2 (mi) - 10.0 (km)

Current Conditions
LIRQ
Location 35(km)
Metar :LIRQ 232250Z VRB01KT CAVOK 16/11 Q1020
Fri 24th September 00:50 am

Airport
  Metar Aviation API Data Provided by https://www.checkwx.com/ PHP scripts by weather34.com ©2021